Time;durP1;ratioP1;P1;durP2;ratioP2;P2;SDS_P1;SDS_P2;PMS_P1;PMS_P2;Temp;Humidity;BMP_temperature;BMP_pressure;BME280_temperature;BME280_humidity;BME280_pressure;Samples;Min_cycle;Max_cycle;Signal;HPM_P1;HPM_P2
2020/12/23 00:01:21;;;;;;;7.60;1.58;;;14.40;91.80;;;;;;4232159;33;20711;-84
2020/12/23 00:03:49;;;;;;;7.78;1.00;;;14.30;92.10;;;;;;4234491;32;21059;-83
2020/12/23 00:06:17;;;;;;;6.68;1.20;;;14.30;92.50;;;;;;4238086;33;20890;-84
2020/12/23 00:08:45;;;;;;;2.72;1.10;;;14.40;92.80;;;;;;4236382;33;20331;-84
2020/12/23 00:11:16;;;;;;;3.45;1.17;;;14.30;93.00;;;;;;4329294;27;20447;-83
2020/12/23 00:13:44;;;;;;;4.85;1.12;;;14.40;93.20;;;;;;4234618;33;20072;-83
2020/12/23 00:16:13;;;;;;;5.32;1.20;;;14.40;93.00;;;;;;4233342;33;20298;-84
2020/12/23 00:18:41;;;;;;;4.30;1.10;;;14.50;92.90;;;;;;4241060;33;20492;-83
2020/12/23 00:21:09;;;;;;;11.45;1.52;;;14.50;92.60;;;;;;4222874;33;20608;-84
2020/12/23 00:23:38;;;;;;;5.60;1.05;;;14.50;92.60;;;;;;4237488;33;20071;-83
2020/12/23 00:26:08;;;;;;;4.50;1.27;;;14.60;92.50;;;;;;4222320;33;20982;-84
2020/12/23 00:28:35;;;;;;;6.90;1.23;;;14.50;92.50;;;;;;4229594;33;20098;-84
2020/12/23 00:31:04;;;;;;;2.65;1.10;;;14.50;92.60;;;;;;4220984;33;20221;-84
2020/12/23 00:33:32;;;;;;;2.40;0.85;;;14.40;92.60;;;;;;4207356;33;20596;-83
2020/12/23 00:36:00;;;;;;;4.93;1.30;;;14.40;92.70;;;;;;4240300;33;20603;-84
2020/12/23 00:38:28;;;;;;;6.35;1.10;;;14.40;92.70;;;;;;4234240;33;20056;-84
2020/12/23 00:40:56;;;;;;;4.65;0.88;;;14.40;92.90;;;;;;4241847;33;20151;-84
2020/12/23 00:43:24;;;;;;;5.12;1.20;;;14.40;93.10;;;;;;4236601;33;20490;-82
2020/12/23 00:45:52;;;;;;;8.63;1.23;;;14.40;93.50;;;;;;4231262;33;20549;-84
2020/12/23 00:48:20;;;;;;;2.47;1.12;;;14.30;93.90;;;;;;4236523;33;20485;-84
2020/12/23 00:50:48;;;;;;;1.65;0.75;;;14.20;94.40;;;;;;4237475;33;20097;-84
2020/12/23 00:53:16;;;;;;;3.55;1.77;;;14.20;95.20;;;;;;4234669;33;20436;-84
2020/12/23 00:55:44;;;;;;;1.75;0.90;;;14.10;95.70;;;;;;4209609;33;20084;-83
2020/12/23 00:58:12;;;;;;;4.25;1.02;;;14.10;96.50;;;;;;4274929;27;20036;-83
2020/12/23 01:00:40;;;;;;;3.72;1.37;;;14.10;97.60;;;;;;4337859;33;20099;-83
2020/12/23 01:03:08;;;;;;;2.03;1.00;;;14.10;98.70;;;;;;4318859;27;20371;-83
2020/12/23 01:05:36;;;;;;;3.65;2.03;;;14.10;99.40;;;;;;4230880;33;20068;-84
2020/12/23 01:08:04;;;;;;;7.68;1.35;;;14.10;99.80;;;;;;4229908;33;20088;-83
2020/12/23 01:10:32;;;;;;;4.07;1.25;;;14.10;99.90;;;;;;4202788;33;21021;-84
2020/12/23 01:13:00;;;;;;;3.33;1.20;;;14.00;99.90;;;;;;4221493;33;21067;-83
2020/12/23 01:15:28;;;;;;;4.57;1.30;;;14.00;99.90;;;;;;4219656;33;21299;-83
2020/12/23 01:17:56;;;;;;;2.95;1.62;;;14.10;99.90;;;;;;4202781;33;20460;-83
2020/12/23 01:20:24;;;;;;;4.37;1.20;;;14.00;99.60;;;;;;4222176;33;20540;-83
2020/12/23 01:22:52;;;;;;;6.65;1.65;;;14.10;99.20;;;;;;4240483;33;20444;-82
2020/12/23 01:25:19;;;;;;;1.27;1.15;;;14.20;98.30;;;;;;4327444;33;20111;-83
2020/12/23 01:27:47;;;;;;;1.85;1.00;;;14.20;97.90;;;;;;4333921;33;20104;-83
2020/12/23 01:30:16;;;;;;;1.98;1.10;;;14.20;97.50;;;;;;4338299;33;20063;-83
2020/12/23 01:32:43;;;;;;;5.22;1.10;;;14.20;97.10;;;;;;4339603;32;20063;-83
2020/12/23 01:35:12;;;;;;;2.47;1.20;;;14.30;96.70;;;;;;4337667;33;20059;-83
2020/12/23 01:37:40;;;;;;;3.83;1.12;;;14.20;96.30;;;;;;4324406;33;20099;-84
2020/12/23 01:40:08;;;;;;;2.35;1.10;;;14.20;95.90;;;;;;4337045;33;20191;-82
2020/12/23 01:42:35;;;;;;;8.23;1.25;;;14.20;95.60;;;;;;4338329;33;20055;-83
2020/12/23 01:45:06;;;;;;;3.83;1.15;;;14.20;95.50;;;;;;4338680;33;20060;-83
2020/12/23 01:47:35;;;;;;;3.65;0.90;;;14.10;95.50;;;;;;4323334;33;20659;-83
2020/12/23 01:50:03;;;;;;;7.75;0.90;;;14.10;95.40;;;;;;4337705;33;20134;-82
2020/12/23 01:52:36;;;;;;;3.03;0.80;;;14.10;95.00;;;;;;4338982;33;20072;-83
2020/12/23 01:55:07;;;;;;;2.47;1.12;;;14.20;94.80;;;;;;4336877;33;20086;-84
2020/12/23 01:57:36;;;;;;;1.27;0.93;;;14.20;94.80;;;;;;4341337;32;20056;-84
2020/12/23 02:00:05;;;;;;;3.92;1.00;;;14.20;94.70;;;;;;4337644;33;20387;-83
2020/12/23 02:02:43;;;;;;;3.60;1.25;;;14.30;94.70;;;;;;4333595;33;20107;-83
2020/12/23 02:05:11;;;;;;;1.98;1.02;;;14.30;94.70;;;;;;4336156;33;20120;-84
2020/12/23 02:07:39;;;;;;;6.35;1.00;;;14.30;94.80;;;;;;4341865;33;20339;-83
2020/12/23 02:10:07;;;;;;;6.12;1.00;;;14.20;94.90;;;;;;4325040;33;20142;-83
2020/12/23 02:12:35;;;;;;;4.05;1.08;;;14.20;95.00;;;;;;4330790;33;20052;-83
2020/12/23 02:15:14;;;;;;;5.85;1.08;;;14.10;95.10;;;;;;4347824;32;20047;-83
2020/12/23 02:17:42;;;;;;;7.60;0.98;;;14.00;95.30;;;;;;4347279;33;20105;-83
2020/12/23 02:20:14;;;;;;;2.05;1.05;;;14.00;95.40;;;;;;4336941;32;20154;-82
2020/12/23 02:22:43;;;;;;;2.83;0.60;;;14.00;95.30;;;;;;4337658;33;20068;-84
2020/12/23 02:25:11;;;;;;;4.90;1.00;;;14.00;95.30;;;;;;4340257;33;20439;-83
2020/12/23 02:27:40;;;;;;;3.15;0.62;;;14.00;95.40;;;;;;4340390;33;20056;-84
2020/12/23 02:30:10;;;;;;;6.93;1.25;;;14.00;95.50;;;;;;4345623;32;20060;-83
2020/12/23 02:32:39;;;;;;;1.67;0.70;;;14.00;95.70;;;;;;4345122;33;20479;-84
2020/12/23 02:35:10;;;;;;;3.65;0.77;;;14.00;95.90;;;;;;4338499;33;20478;-82
2020/12/23 02:37:39;;;;;;;3.03;0.73;;;14.00;96.20;;;;;;4344957;32;20082;-83
2020/12/23 02:40:07;;;;;;;4.25;1.05;;;14.00;96.50;;;;;;4336471;32;20060;-83
2020/12/23 02:42:34;;;;;;;1.52;0.90;;;13.90;96.90;;;;;;4337308;33;20052;-84
2020/12/23 02:45:03;;;;;;;2.15;0.90;;;13.90;97.50;;;;;;4341111;33;20364;-83
2020/12/23 02:47:31;;;;;;;5.45;1.10;;;13.90;98.10;;;;;;4333997;33;20110;-83
2020/12/23 02:49:58;;;;;;;1.60;0.80;;;13.90;98.50;;;;;;4336444;33;20503;-82
2020/12/23 02:52:27;;;;;;;1.85;1.10;;;13.80;99.10;;;;;;4333563;33;20112;-83
2020/12/23 02:54:54;;;;;;;2.95;1.00;;;13.80;99.50;;;;;;4318633;33;20064;-82
2020/12/23 02:57:22;;;;;;;4.93;1.55;;;13.80;99.90;;;;;;4336185;33;20055;-83
2020/12/23 02:59:50;;;;;;;4.82;0.82;;;13.80;99.90;;;;;;4334398;33;20514;-82
2020/12/23 03:02:18;;;;;;;2.70;1.15;;;13.80;99.90;;;;;;4339775;33;20071;-83
2020/12/23 03:05:00;;;;;;;3.62;1.00;;;13.70;99.90;;;;;;4329302;33;20091;-83
2020/12/23 03:07:29;;;;;;;1.77;1.00;;;13.80;99.90;;;;;;4338943;32;20122;-84
2020/12/23 03:09:57;;;;;;;5.25;1.10;;;14.00;99.90;;;;;;4344269;33;20051;-83
2020/12/23 03:16:13;;;;;;;3.45;0.90;;;14.30;99.90;;;;;;4349566;27;20162;-84
2020/12/23 03:18:41;;;;;;;6.40;0.90;;;14.10;99.90;;;;;;4306879;33;20134;-83
2020/12/23 03:21:09;;;;;;;2.62;0.98;;;13.90;99.90;;;;;;4319688;33;20132;-84
2020/12/23 03:23:37;;;;;;;1.87;0.85;;;13.90;99.90;;;;;;4315111;27;20096;-84
2020/12/23 03:26:06;;;;;;;1.92;1.08;;;13.90;99.90;;;;;;4317302;33;20090;-84
2020/12/23 03:28:34;;;;;;;1.52;1.10;;;13.80;99.90;;;;;;4310848;33;20526;-84
2020/12/23 03:31:02;;;;;;;4.85;1.30;;;14.00;99.90;;;;;;4356078;27;20070;-84
2020/12/23 03:33:30;;;;;;;1.73;1.50;;;14.30;99.90;;;;;;4326112;33;20188;-84
2020/12/23 03:35:59;;;;;;;3.50;1.10;;;14.50;99.90;;;;;;4342703;27;20348;-86
2020/12/23 03:38:27;;;;;;;6.47;1.98;;;14.70;99.90;;;;;;4302916;33;20120;-84
2020/12/23 03:40:55;;;;;;;4.53;1.12;;;14.90;99.90;;;;;;4304391;33;20147;-84
2020/12/23 03:43:23;;;;;;;4.35;1.75;;;15.00;99.90;;;;;;4327344;27;20460;-84
2020/12/23 03:45:51;;;;;;;5.65;1.45;;;14.90;99.90;;;;;;4319596;33;20487;-84
2020/12/23 03:48:20;;;;;;;6.00;1.67;;;14.90;99.90;;;;;;4336705;27;20118;-83
2020/12/23 03:50:48;;;;;;;4.10;1.50;;;15.10;99.90;;;;;;4348861;27;20048;-84
2020/12/23 03:53:15;;;;;;;1.87;1.42;;;15.10;99.90;;;;;;4327555;33;20136;-84
2020/12/23 03:55:44;;;;;;;6.40;1.85;;;15.00;99.90;;;;;;4360505;27;20099;-84
2020/12/23 03:58:11;;;;;;;3.15;1.55;;;15.10;99.90;;;;;;4333510;33;20500;-84
2020/12/23 04:00:40;;;;;;;4.78;1.50;;;15.00;99.90;;;;;;4350297;33;20075;-84
2020/12/23 04:03:08;;;;;;;3.30;1.83;;;15.00;99.90;;;;;;4365540;27;20512;-85
2020/12/23 04:05:38;;;;;;;7.22;2.53;;;15.00;99.90;;;;;;4351095;33;20102;-83
2020/12/23 04:08:07;;;;;;;6.87;2.92;;;15.00;99.90;;;;;;4358375;27;20075;-85
2020/12/23 04:10:45;;;;;;;8.88;1.70;;;15.10;99.90;;;;;;4380559;26;20149;-84
2020/12/23 04:13:13;;;;;;;7.82;2.12;;;15.10;99.90;;;;;;4367910;32;20090;-84
2020/12/23 04:15:41;;;;;;;3.45;1.48;;;15.00;99.90;;;;;;4406871;27;20055;-84
2020/12/23 04:18:10;;;;;;;2.25;1.37;;;14.90;99.90;;;;;;4366507;32;20429;-84
2020/12/23 04:20:41;;;;;;;6.00;2.25;;;14.80;99.90;;;;;;4359975;32;20254;-84
2020/12/23 04:23:12;;;;;;;9.50;2.00;;;14.80;99.90;;;;;;4388193;27;20057;-84
2020/12/23 04:25:40;;;;;;;3.03;1.92;;;14.80;99.90;;;;;;4341286;32;20111;-84
2020/12/23 04:28:08;;;;;;;4.12;2.03;;;14.90;99.90;;;;;;4383861;27;20144;-84
2020/12/23 04:30:36;;;;;;;4.62;2.12;;;14.80;99.90;;;;;;4371869;32;20059;-84
2020/12/23 04:33:04;;;;;;;3.47;1.90;;;14.70;99.90;;;;;;4374791;32;20496;-84
2020/12/23 04:35:32;;;;;;;10.07;4.85;;;14.80;99.90;;;;;;4380880;27;20115;-84
2020/12/23 04:38:00;;;;;;;4.82;3.67;;;14.60;99.90;;;;;;4354696;32;20815;-85
2020/12/23 04:40:29;;;;;;;6.20;1.87;;;14.50;99.90;;;;;;4350745;32;20072;-84
2020/12/23 04:42:57;;;;;;;7.35;2.25;;;14.30;99.90;;;;;;4388763;27;20062;-85
2020/12/23 04:45:25;;;;;;;6.82;3.95;;;14.10;99.90;;;;;;4364501;32;20063;-85
2020/12/23 04:47:56;;;;;;;8.52;7.55;;;14.00;99.90;;;;;;4387365;27;20047;-84
2020/12/23 04:50:31;;;;;;;6.45;5.78;;;13.90;99.90;;;;;;4327612;33;20056;-85
2020/12/23 04:53:00;;;;;;;6.90;6.20;;;13.80;99.90;;;;;;4325685;33;20056;-85
2020/12/23 04:55:27;;;;;;;5.22;4.65;;;13.80;99.90;;;;;;4352825;27;20094;-84
2020/12/23 04:57:56;;;;;;;8.65;8.07;;;13.80;99.90;;;;;;4349565;33;20528;-84
2020/12/23 05:00:26;;;;;;;9.35;8.73;;;13.80;99.90;;;;;;4333109;33;20704;-84
2020/12/23 05:02:54;;;;;;;6.00;2.58;;;13.70;99.90;;;;;;4367217;27;20441;-85
2020/12/23 05:05:21;;;;;;;3.90;1.77;;;13.70;99.90;;;;;;4344634;33;20512;-84
2020/12/23 05:07:50;;;;;;;9.45;2.10;;;13.80;99.90;;;;;;4353690;27;20064;-84
2020/12/23 05:10:18;;;;;;;7.30;1.92;;;13.90;99.90;;;;;;4354292;27;20040;-85
2020/12/23 05:12:46;;;;;;;4.55;2.70;;;13.90;99.90;;;;;;4355217;27;20094;-84
2020/12/23 05:15:16;;;;;;;4.32;2.35;;;13.80;99.90;;;;;;4333201;33;20052;-85
2020/12/23 05:17:46;;;;;;;5.10;1.55;;;13.70;99.90;;;;;;4329012;33;20079;-85
2020/12/23 05:20:14;;;;;;;6.12;3.08;;;13.70;99.90;;;;;;4338183;27;20124;-87
2020/12/23 05:22:46;;;;;;;8.10;2.42;;;13.70;99.90;;;;;;4299284;33;20068;-84
2020/12/23 05:25:17;;;;;;;9.20;7.20;;;13.60;99.90;;;;;;4336349;27;20124;-84
2020/12/23 05:27:47;;;;;;;8.43;6.37;;;13.70;99.90;;;;;;4323547;27;20442;-85
2020/12/23 05:30:17;;;;;;;7.68;6.97;;;13.70;99.90;;;;;;4336863;27;20064;-84
2020/12/23 05:32:47;;;;;;;9.80;8.80;;;13.70;99.90;;;;;;4345443;27;20519;-84
2020/12/23 05:35:16;;;;;;;9.43;8.85;;;13.60;99.90;;;;;;4330743;32;20104;-84
2020/12/23 05:37:44;;;;;;;10.20;8.10;;;13.60;99.90;;;;;;4326339;33;20423;-84
2020/12/23 05:40:12;;;;;;;8.07;7.50;;;13.60;99.90;;;;;;4353504;27;20133;-85
2020/12/23 05:42:40;;;;;;;8.68;7.87;;;13.60;99.90;;;;;;4316189;33;20115;-84
2020/12/23 05:45:08;;;;;;;8.68;6.60;;;13.70;99.90;;;;;;4390328;27;20040;-85
2020/12/23 05:47:37;;;;;;;9.57;7.30;;;13.60;99.90;;;;;;4321071;33;20053;-84
2020/12/23 05:50:10;;;;;;;8.07;7.30;;;13.60;99.90;;;;;;4310080;33;20133;-85
2020/12/23 05:52:38;;;;;;;9.13;8.32;;;13.60;99.90;;;;;;4334080;27;20075;-84
2020/12/23 05:55:17;;;;;;;8.15;7.55;;;13.60;99.90;;;;;;4336219;33;20065;-85
2020/12/23 05:57:45;;;;;;;9.70;7.65;;;13.50;99.90;;;;;;4320711;33;20065;-84
2020/12/23 06:00:13;;;;;;;10.10;9.15;;;13.50;99.90;;;;;;4350106;27;20048;-84
2020/12/23 06:03:18;;;;;;;10.27;9.35;;;13.50;99.90;;;;;;4350057;27;20612;-85
2020/12/23 06:05:57;;;;;;;8.18;6.15;;;13.40;99.90;;;;;;4339974;27;20710;-86
2020/12/23 06:08:36;;;;;;;11.45;2.92;;;13.40;99.90;;;;;;4320447;33;20135;-84
2020/12/23 06:11:29;;;;;;;12.55;7.32;;;13.40;99.90;;;;;;4339148;33;20068;-84
2020/12/23 06:14:00;;;;;;;9.10;8.50;;;13.30;99.90;;;;;;4322593;27;20111;-84
2020/12/23 06:16:33;;;;;;;10.40;9.50;;;13.30;99.90;;;;;;4288394;33;21052;-84
2020/12/23 06:19:22;;;;;;;10.05;9.45;;;13.30;99.90;;;;;;4301846;33;20064;-83
2020/12/23 06:21:50;;;;;;;11.25;10.45;;;13.30;99.90;;;;;;4296170;27;20045;-85
2020/12/23 06:24:19;;;;;;;11.68;10.60;;;13.30;99.90;;;;;;4294604;33;20127;-85
2020/12/23 06:26:49;;;;;;;11.30;10.18;;;13.30;99.90;;;;;;4316842;27;20065;-85
2020/12/23 06:29:19;;;;;;;13.27;10.70;;;13.40;99.90;;;;;;4305078;33;20052;-85
2020/12/23 06:31:53;;;;;;;11.63;10.60;;;13.40;99.90;;;;;;4324043;27;20143;-86
2020/12/23 06:34:25;;;;;;;10.10;9.40;;;13.40;99.90;;;;;;4289217;33;20053;-84
2020/12/23 06:36:55;;;;;;;10.90;10.15;;;13.40;99.90;;;;;;4291578;33;20124;-84
2020/12/23 06:39:37;;;;;;;11.43;10.25;;;13.30;99.90;;;;;;4301806;27;20127;-85
2020/12/23 06:42:05;;;;;;;10.00;9.23;;;13.20;99.90;;;;;;4299843;27;20047;-86
2020/12/23 06:44:43;;;;;;;9.40;8.43;;;13.10;99.90;;;;;;4273649;33;20077;-84
2020/12/23 06:47:21;;;;;;;7.15;6.60;;;13.10;99.90;;;;;;4281987;27;20449;-85
2020/12/23 06:50:01;;;;;;;7.45;6.85;;;13.10;99.90;;;;;;4259529;33;20368;-84
2020/12/23 06:52:31;;;;;;;7.10;6.40;;;13.10;99.90;;;;;;4280171;33;20118;-85
2020/12/23 06:55:07;;;;;;;12.93;6.72;;;13.10;99.90;;;;;;4275205;27;20051;-84
2020/12/23 06:57:38;;;;;;;7.62;5.50;;;13.10;99.90;;;;;;4266749;33;20499;-84
2020/12/23 07:00:29;;;;;;;4.65;3.22;;;13.10;99.90;;;;;;4248529;27;20116;-85
2020/12/23 07:03:00;;;;;;;5.68;1.35;;;13.00;99.90;;;;;;4312170;27;20076;-84
2020/12/23 07:05:28;;;;;;;1.30;0.77;;;13.00;99.90;;;;;;4292691;33;20057;-84
2020/12/23 07:08:00;;;;;;;5.90;1.00;;;13.00;99.90;;;;;;4304934;27;20053;-84
2020/12/23 07:10:34;;;;;;;1.87;1.05;;;13.00;99.90;;;;;;4274542;33;20100;-84
2020/12/23 07:13:04;;;;;;;5.60;1.48;;;13.00;99.90;;;;;;4281852;27;20346;-84
2020/12/23 07:15:54;;;;;;;14.65;1.50;;;13.00;99.90;;;;;;4302169;27;20436;-85
2020/12/23 07:18:27;;;;;;;4.30;1.00;;;13.10;99.90;;;;;;4260024;33;20485;-84
2020/12/23 07:21:02;;;;;;;4.93;1.23;;;13.10;99.90;;;;;;4281726;27;20114;-84
2020/12/23 07:23:31;;;;;;;7.07;1.23;;;13.10;99.90;;;;;;4278782;33;20100;-84
2020/12/23 07:26:07;;;;;;;6.05;1.00;;;13.10;99.90;;;;;;4294284;27;20141;-84
2020/12/23 07:28:40;;;;;;;2.70;0.70;;;13.10;99.90;;;;;;4285126;33;20445;-84
2020/12/23 07:31:11;;;;;;;2.65;1.10;;;13.10;99.90;;;;;;4309296;27;20075;-85
2020/12/23 07:33:42;;;;;;;5.07;1.05;;;13.00;99.90;;;;;;4297841;33;20142;-84
2020/12/23 07:36:14;;;;;;;6.35;1.55;;;13.00;99.90;;;;;;4300889;33;20394;-84
2020/12/23 07:38:43;;;;;;;2.53;1.15;;;13.10;99.90;;;;;;4297829;27;20071;-84
2020/12/23 07:41:12;;;;;;;4.95;1.20;;;13.10;99.90;;;;;;4277736;33;20058;-84
2020/12/23 07:43:42;;;;;;;2.30;0.90;;;13.20;99.90;;;;;;4307412;27;20262;-85
2020/12/23 07:46:10;;;;;;;2.10;1.15;;;13.10;99.90;;;;;;4287299;33;20087;-85
2020/12/23 07:48:38;;;;;;;10.60;1.87;;;13.20;99.90;;;;;;4285339;33;20108;-85
2020/12/23 07:51:08;;;;;;;3.95;1.23;;;13.20;99.90;;;;;;4297649;27;20124;-84
2020/12/23 07:53:37;;;;;;;3.05;0.80;;;13.30;99.90;;;;;;4272078;33;20074;-84
2020/12/23 07:56:06;;;;;;;6.32;1.40;;;13.40;99.90;;;;;;4302051;27;20051;-85
2020/12/23 07:58:35;;;;;;;8.88;1.10;;;13.90;99.90;;;;;;4288160;33;20120;-85
2020/12/23 08:01:08;;;;;;;3.75;1.00;;;14.50;99.90;;;;;;4298330;33;20103;-85
2020/12/23 08:03:37;;;;;;;4.43;1.40;;;15.20;99.90;;;;;;4316396;27;20621;-85
2020/12/23 08:06:12;;;;;;;4.40;2.75;;;15.80;99.90;;;;;;4282787;33;20216;-85
2020/12/23 08:08:42;;;;;;;2.95;1.85;;;16.50;98.20;;;;;;4296649;33;20134;-83
2020/12/23 08:11:16;;;;;;;12.15;6.53;;;17.20;96.90;;;;;;4308178;27;20187;-83
2020/12/23 08:13:44;;;;;;;5.45;2.95;;;18.00;95.40;;;;;;4299528;33;20099;-83
2020/12/23 08:16:15;;;;;;;7.55;6.90;;;18.70;93.80;;;;;;4298933;33;20076;-83
2020/12/23 08:18:44;;;;;;;6.62;2.45;;;19.30;92.20;;;;;;4313278;27;20188;-84
2020/12/23 08:21:16;;;;;;;7.00;2.08;;;19.90;90.00;;;;;;4310812;33;20115;-84
2020/12/23 08:23:49;;;;;;;4.70;2.22;;;20.40;86.30;;;;;;4327213;28;20199;-85
2020/12/23 08:26:17;;;;;;;4.30;2.60;;;21.20;83.20;;;;;;4296258;33;20056;-84
2020/12/23 08:28:47;;;;;;;11.05;2.65;;;21.40;81.60;;;;;;4311333;27;20163;-84
2020/12/23 08:31:30;;;;;;;3.85;1.98;;;21.90;77.80;;;;;;4313883;27;21027;-84
2020/12/23 08:34:02;;;;;;;4.80;2.00;;;22.30;76.80;;;;;;4280992;33;20061;-84
2020/12/23 08:36:31;;;;;;;3.17;2.22;;;22.80;75.90;;;;;;4311077;27;20069;-84
2020/12/23 08:38:59;;;;;;;2.75;2.05;;;23.00;73.00;;;;;;4294617;33;20101;-84
2020/12/23 08:41:27;;;;;;;5.60;2.10;;;23.20;72.30;;;;;;4286525;33;20111;-84
2020/12/23 08:43:55;;;;;;;2.30;2.10;;;23.30;70.90;;;;;;4330782;27;20094;-85
2020/12/23 08:46:25;;;;;;;4.90;2.30;;;23.40;69.70;;;;;;4322808;33;20111;-84
2020/12/23 08:49:00;;;;;;;4.12;2.50;;;23.30;68.90;;;;;;4296383;33;20112;-84
2020/12/23 08:51:28;;;;;;;4.60;2.60;;;23.40;68.50;;;;;;4312266;27;20607;-86
2020/12/23 08:53:57;;;;;;;2.75;2.55;;;23.90;67.10;;;;;;4306308;33;20110;-85
2020/12/23 08:56:27;;;;;;;4.10;2.65;;;24.90;65.50;;;;;;4311484;27;21684;-85
2020/12/23 08:59:00;;;;;;;3.72;2.50;;;25.00;63.50;;;;;;4270909;33;20108;-85
2020/12/23 09:01:33;;;;;;;4.43;2.80;;;25.40;62.80;;;;;;4280411;33;20112;-85
2020/12/23 09:04:07;;;;;;;9.55;2.83;;;24.70;61.20;;;;;;4305978;27;20400;-85
2020/12/23 09:06:41;;;;;;;4.10;2.78;;;24.50;62.40;;;;;;4284729;33;20273;-85
2020/12/23 09:09:15;;;;;;;8.27;3.30;;;24.40;61.00;;;;;;4303405;27;20090;-85
2020/12/23 09:11:42;;;;;;;;;;;25.00;58.60;;;;;;4315771;27;20487;-85
2020/12/23 09:14:38;;;;;;;5.62;3.37;;;24.80;56.80;;;;;;4286194;33;20378;-84
2020/12/23 09:17:08;;;;;;;4.22;3.90;;;24.40;56.50;;;;;;4310383;27;20040;-85
2020/12/23 09:19:43;;;;;;;5.60;3.75;;;24.40;56.00;;;;;;4288992;33;20143;-86
2020/12/23 09:22:30;;;;;;;6.32;3.40;;;24.60;55.70;;;;;;4302792;33;20059;-85
2020/12/23 09:25:19;;;;;;;4.28;3.30;;;25.30;56.30;;;;;;4347683;27;20061;-84
2020/12/23 09:27:50;;;;;;;5.25;4.32;;;25.80;54.50;;;;;;4300026;33;20061;-85
2020/12/23 09:30:46;;;;;;;5.68;3.67;;;24.90;51.70;;;;;;4326262;27;20137;31
2020/12/23 09:33:19;;;;;;;5.30;3.80;;;25.20;52.60;;;;;;4246117;33;20065;-85
2020/12/23 09:35:52;;;;;;;5.32;3.72;;;25.90;53.10;;;;;;4255928;33;20109;-85
2020/12/23 09:38:24;;;;;;;7.95;3.90;;;25.80;53.10;;;;;;4313641;27;20096;-85
2020/12/23 09:40:55;;;;;;;4.85;4.15;;;25.20;52.20;;;;;;4312423;33;20068;-84
2020/12/23 09:43:28;;;;;;;5.00;4.53;;;24.70;52.50;;;;;;4337572;27;20084;-84
2020/12/23 09:46:02;;;;;;;4.30;4.00;;;24.20;51.00;;;;;;4306803;33;20129;-84
2020/12/23 09:48:30;;;;;;;;;;;24.70;51.10;;;;;;4289572;33;20402;-84
2020/12/23 09:50:58;;;;;;;8.40;7.57;;;25.70;49.40;;;;;;4306961;33;20389;-84
2020/12/23 09:53:27;;;;;;;10.82;5.68;;;24.80;46.80;;;;;;4302829;27;20724;-85
2020/12/23 09:55:55;;;;;;;7.47;4.53;;;24.30;47.90;;;;;;4271616;33;20445;-84
2020/12/23 09:58:23;;;;;;;5.25;3.53;;;24.30;46.80;;;;;;4269616;33;20069;-84
2020/12/23 10:00:52;;;;;;;3.97;3.60;;;25.90;47.10;;;;;;4300255;27;20176;-84
2020/12/23 10:03:20;;;;;;;4.35;3.75;;;26.00;46.50;;;;;;4301783;28;20208;-85
2020/12/23 10:05:48;;;;;;;6.75;4.05;;;25.40;46.40;;;;;;4294089;33;20099;-84
2020/12/23 10:08:16;;;;;;;8.77;4.32;;;25.80;45.90;;;;;;4315918;27;20414;-84
2020/12/23 10:10:44;;;;;;;8.45;5.72;;;25.70;46.40;;;;;;4280806;33;20122;-84
2020/12/23 10:13:12;;;;;;;7.70;5.35;;;24.80;47.80;;;;;;4277847;33;20476;-84
2020/12/23 10:16:00;;;;;;;5.28;4.78;;;24.60;48.90;;;;;;4275348;33;20587;-84
2020/12/23 10:18:28;;;;;;;11.07;5.90;;;25.40;48.60;;;;;;4277715;33;20112;-85
2020/12/23 10:20:56;;;;;;;7.05;6.57;;;24.60;45.90;;;;;;4298211;27;20429;-86
2020/12/23 10:23:24;;;;;;;8.10;4.03;;;24.70;46.80;;;;;;4307356;33;20124;-84
2020/12/23 10:25:52;;;;;;;5.72;5.00;;;25.80;46.50;;;;;;4296429;33;20626;-84
2020/12/23 10:28:19;;;;;;;10.55;4.72;;;25.10;44.30;;;;;;4335880;27;20537;-84
2020/12/23 10:30:47;;;;;;;5.87;4.45;;;25.00;45.00;;;;;;4325870;33;20096;-84
2020/12/23 10:36:09;;;;;;;9.30;7.47;;;25.30;44.20;;;;;;4297710;33;20499;-86
2020/12/23 10:38:37;;;;;;;9.27;4.90;;;25.10;43.20;;;;;;4300003;33;20521;-84
2020/12/23 10:41:05;;;;;;;4.90;4.50;;;25.00;44.00;;;;;;4370231;27;20831;-83
2020/12/23 10:43:34;;;;;;;10.32;3.60;;;25.20;44.30;;;;;;4293608;33;20116;-84
2020/12/23 10:46:06;;;;;;;8.10;4.50;;;26.50;43.70;;;;;;4300247;33;20112;-84
2020/12/23 10:48:35;;;;;;;5.35;4.50;;;25.20;42.90;;;;;;4321837;27;20167;-85
2020/12/23 10:51:03;;;;;;;3.83;3.47;;;25.10;43.50;;;;;;4301721;33;20049;-84
2020/12/23 10:53:32;;;;;;;9.15;3.33;;;25.80;43.30;;;;;;4318049;27;20155;-84
2020/12/23 10:56:00;;;;;;;15.68;4.47;;;26.60;42.30;;;;;;4300623;33;20104;-84
2020/12/23 10:58:28;;;;;;;12.52;5.82;;;25.40;42.80;;;;;;4289546;33;20634;-84
2020/12/23 11:00:56;;;;;;;5.97;3.97;;;25.30;43.30;;;;;;4311908;27;20153;-83
2020/12/23 11:03:24;;;;;;;8.48;3.97;;;25.80;45.00;;;;;;4291538;33;20112;-84
2020/12/23 11:05:52;;;;;;;7.60;5.03;;;26.10;43.90;;;;;;4284164;33;21634;-84
2020/12/23 11:08:20;;;;;;;13.62;4.43;;;25.80;43.80;;;;;;4299425;33;20499;-86
2020/12/23 11:10:48;;;;;;;11.55;3.00;;;24.90;45.50;;;;;;4301229;33;20068;-84
2020/12/23 11:13:16;;;;;;;6.72;4.43;;;25.70;45.30;;;;;;4320899;27;20048;-84
2020/12/23 11:15:44;;;;;;;4.40;3.42;;;26.00;44.00;;;;;;4297489;33;20124;-85
2020/12/23 11:18:12;;;;;;;5.97;3.20;;;25.20;44.10;;;;;;4304935;33;20083;-84
2020/12/23 11:20:41;;;;;;;5.57;3.97;;;26.40;44.20;;;;;;4327475;27;20058;-84
2020/12/23 11:23:24;;;;;;;6.55;3.33;;;25.60;43.20;;;;;;4318825;27;20668;-84
2020/12/23 11:25:55;;;;;;;8.85;3.35;;;25.50;42.60;;;;;;4331039;27;20341;-84
2020/12/23 11:28:23;;;;;;;8.60;3.15;;;25.40;40.80;;;;;;4306224;33;20068;-84
2020/12/23 11:30:51;;;;;;;7.62;2.83;;;25.20;39.90;;;;;;4308533;33;20136;-83
2020/12/23 11:33:19;;;;;;;5.28;2.80;;;25.40;40.40;;;;;;4347892;27;20052;-84
2020/12/23 11:35:48;;;;;;;4.25;2.62;;;25.30;42.20;;;;;;4328802;33;20135;-84
2020/12/23 11:38:15;;;;;;;20.40;4.37;;;26.20;42.20;;;;;;4332721;33;20064;-84
2020/12/23 11:40:43;;;;;;;8.25;3.15;;;24.80;42.00;;;;;;4302896;27;20078;-84
2020/12/23 11:43:11;;;;;;;6.72;3.45;;;25.20;42.00;;;;;;4274104;33;20460;-84
2020/12/23 11:45:39;;;;;;;12.43;3.33;;;25.80;40.60;;;;;;4318838;27;20482;-85
2020/12/23 11:48:07;;;;;;;8.88;2.50;;;25.30;41.70;;;;;;4319822;33;20072;-85
2020/12/23 11:50:36;;;;;;;6.93;2.47;;;25.60;43.10;;;;;;4310971;33;20621;-84
2020/12/23 11:53:03;;;;;;;4.82;2.60;;;25.90;43.30;;;;;;4333292;27;20087;-84
2020/12/23 11:55:32;;;;;;;5.75;2.85;;;26.20;42.40;;;;;;4305231;33;20053;-83
2020/12/23 11:58:00;;;;;;;5.90;2.75;;;25.80;42.10;;;;;;4306151;33;20395;-84
2020/12/23 12:00:28;;;;;;;9.90;3.12;;;25.70;42.30;;;;;;4326560;27;20100;-83
2020/12/23 12:02:56;;;;;;;8.13;4.35;;;25.90;41.20;;;;;;4316777;33;20531;-84
2020/12/23 12:05:24;;;;;;;10.02;2.80;;;24.50;41.70;;;;;;4318264;33;20095;-83
2020/12/23 12:07:52;;;;;;;11.48;2.83;;;24.80;43.30;;;;;;4317820;33;20064;-83
2020/12/23 12:10:20;;;;;;;19.05;5.43;;;25.80;43.10;;;;;;4333293;33;20466;-83
2020/12/23 12:12:48;;;;;;;26.80;3.40;;;24.60;44.00;;;;;;4334780;33;20130;-84
2020/12/23 12:15:16;;;;;;;7.28;3.15;;;25.40;44.40;;;;;;4332146;33;20566;-84
2020/12/23 12:17:44;;;;;;;13.13;2.65;;;25.20;43.20;;;;;;4331624;33;20131;-83
2020/12/23 12:20:12;;;;;;;8.73;2.62;;;25.10;41.70;;;;;;4336286;27;20068;-83
2020/12/23 12:22:40;;;;;;;8.80;2.53;;;25.20;41.80;;;;;;4305988;33;20183;-83
2020/12/23 12:25:08;;;;;;;5.20;3.37;;;25.30;42.80;;;;;;4306071;27;20057;-84
2020/12/23 12:27:36;;;;;;;9.20;3.85;;;24.90;42.60;;;;;;4294003;33;20064;-83
2020/12/23 12:30:04;;;;;;;7.72;3.08;;;24.20;42.80;;;;;;4300410;33;20469;-85
2020/12/23 12:32:33;;;;;;;9.25;2.60;;;24.50;44.70;;;;;;4327603;27;20053;-83
2020/12/23 12:35:01;;;;;;;17.55;2.17;;;24.90;45.10;;;;;;4312962;33;20135;-83
2020/12/23 12:37:29;;;;;;;7.90;2.30;;;24.30;45.00;;;;;;4323541;33;20052;-84
2020/12/23 12:39:57;;;;;;;7.95;1.83;;;23.40;46.40;;;;;;4329039;27;20071;-83
2020/12/23 12:42:25;;;;;;;7.70;1.52;;;23.90;46.50;;;;;;4296535;33;20112;-86
2020/12/23 12:44:53;;;;;;;19.08;1.77;;;23.60;46.30;;;;;;4345222;27;20074;-83
2020/12/23 12:47:21;;;;;;;4.62;1.77;;;22.60;46.20;;;;;;4336515;33;20059;-83
2020/12/23 12:49:49;;;;;;;6.62;1.30;;;22.80;47.30;;;;;;4341741;27;20091;-83
2020/12/23 12:52:17;;;;;;;12.70;1.87;;;23.00;48.80;;;;;;4322814;33;20107;-83
2020/12/23 12:54:45;;;;;;;5.80;1.12;;;22.50;49.60;;;;;;4346123;27;20305;-83
2020/12/23 12:57:13;;;;;;;6.32;1.83;;;22.60;50.40;;;;;;4321175;33;20071;-84
2020/12/23 12:59:41;;;;;;;7.45;2.33;;;22.60;49.00;;;;;;4323285;27;20091;-83
2020/12/23 13:02:11;;;;;;;7.82;1.42;;;22.30;50.40;;;;;;4321696;27;20486;-84
2020/12/23 13:04:39;;;;;;;10.63;1.17;;;22.10;49.70;;;;;;4289693;33;20172;-83
2020/12/23 13:07:08;;;;;;;12.18;1.75;;;22.20;51.60;;;;;;4293333;27;20123;31